sensor_id;sensor_type;location;lat;lon;timestamp;temperature;humidity
31783;DHT22;18351;47.560;9.708;2023-08-12T00:01:33;19.20;99.90
31783;DHT22;18351;47.560;9.708;2023-08-12T00:03:59;19.10;99.90
31783;DHT22;18351;47.560;9.708;2023-08-12T00:06:24;19.10;99.90
31783;DHT22;18351;47.560;9.708;2023-08-12T00:08:50;19.20;99.90
31783;DHT22;18351;47.560;9.708;2023-08-12T00:11:15;19.20;99.90
31783;DHT22;18351;47.560;9.708;2023-08-12T00:13:41;19.10;99.90
31783;DHT22;18351;47.560;9.708;2023-08-12T00:16:06;19.10;99.90
31783;DHT22;18351;47.560;9.708;2023-08-12T00:18:32;19.10;99.90
31783;DHT22;18351;47.560;9.708;2023-08-12T00:21:06;19.10;99.90
31783;DHT22;18351;47.560;9.708;2023-08-12T00:23:33;19.00;99.90
31783;DHT22;18351;47.560;9.708;2023-08-12T00:25:59;18.90;99.90
31783;DHT22;18351;47.560;9.708;2023-08-12T00:28:24;18.80;99.90
31783;DHT22;18351;47.560;9.708;2023-08-12T00:30:50;18.70;99.90
31783;DHT22;18351;47.560;9.708;2023-08-12T00:33:15;18.60;99.90
31783;DHT22;18351;47.560;9.708;2023-08-12T00:35:41;18.60;99.90
31783;DHT22;18351;47.560;9.708;2023-08-12T00:38:06;18.50;99.90
31783;DHT22;18351;47.560;9.708;2023-08-12T00:40:32;18.40;99.90
31783;DHT22;18351;47.560;9.708;2023-08-12T00:42:57;18.30;99.90
31783;DHT22;18351;47.560;9.708;2023-08-12T00:45:23;18.30;99.90
31783;DHT22;18351;47.560;9.708;2023-08-12T00:47:49;18.20;99.90
31783;DHT22;18351;47.560;9.708;2023-08-12T00:50:14;18.10;99.90
31783;DHT22;18351;47.560;9.708;2023-08-12T00:52:41;18.00;99.90
31783;DHT22;18351;47.560;9.708;2023-08-12T00:55:07;18.00;99.90
31783;DHT22;18351;47.560;9.708;2023-08-12T00:57:33;18.00;99.90
31783;DHT22;18351;47.560;9.708;2023-08-12T00:59:59;18.00;99.90
31783;DHT22;18351;47.560;9.708;2023-08-12T01:02:24;17.90;99.90
31783;DHT22;18351;47.560;9.708;2023-08-12T01:04:50;18.00;99.90
31783;DHT22;18351;47.560;9.708;2023-08-12T01:07:16;17.90;99.90
31783;DHT22;18351;47.560;9.708;2023-08-12T01:09:42;17.80;99.90
31783;DHT22;18351;47.560;9.708;2023-08-12T01:15:10;17.60;99.90
31783;DHT22;18351;47.560;9.708;2023-08-12T01:17:41;17.60;99.90
31783;DHT22;18351;47.560;9.708;2023-08-12T01:20:08;17.50;99.90
31783;DHT22;18351;47.560;9.708;2023-08-12T01:22:37;17.50;99.90
31783;DHT22;18351;47.560;9.708;2023-08-12T01:25:05;17.50;99.90
31783;DHT22;18351;47.560;9.708;2023-08-12T01:27:31;17.50;99.90
31783;DHT22;18351;47.560;9.708;2023-08-12T01:29:57;17.50;99.90
31783;DHT22;18351;47.560;9.708;2023-08-12T01:32:41;17.50;99.90
31783;DHT22;18351;47.560;9.708;2023-08-12T01:35:09;17.50;99.90
31783;DHT22;18351;47.560;9.708;2023-08-12T01:37:38;17.50;99.90
31783;DHT22;18351;47.560;9.708;2023-08-12T01:40:05;17.50;99.90
31783;DHT22;18351;47.560;9.708;2023-08-12T01:42:35;17.60;99.90
31783;DHT22;18351;47.560;9.708;2023-08-12T01:45:02;17.60;99.90
31783;DHT22;18351;47.560;9.708;2023-08-12T01:47:28;17.70;99.90
31783;DHT22;18351;47.560;9.708;2023-08-12T01:49:54;17.60;99.90
31783;DHT22;18351;47.560;9.708;2023-08-12T01:52:19;17.60;99.90
31783;DHT22;18351;47.560;9.708;2023-08-12T01:54:45;17.60;99.90
31783;DHT22;18351;47.560;9.708;2023-08-12T01:57:10;17.60;99.90
31783;DHT22;18351;47.560;9.708;2023-08-12T01:59:36;17.60;99.90
31783;DHT22;18351;47.560;9.708;2023-08-12T02:02:02;17.60;99.90
31783;DHT22;18351;47.560;9.708;2023-08-12T02:04:28;17.60;99.90
31783;DHT22;18351;47.560;9.708;2023-08-12T02:06:54;17.50;99.90
31783;DHT22;18351;47.560;9.708;2023-08-12T02:09:20;17.60;99.90
31783;DHT22;18351;47.560;9.708;2023-08-12T02:11:46;17.60;99.90
31783;DHT22;18351;47.560;9.708;2023-08-12T02:14:11;17.60;99.90
31783;DHT22;18351;47.560;9.708;2023-08-12T02:16:37;17.60;99.90
31783;DHT22;18351;47.560;9.708;2023-08-12T02:19:03;17.60;99.90
31783;DHT22;18351;47.560;9.708;2023-08-12T02:21:29;17.60;99.90
31783;DHT22;18351;47.560;9.708;2023-08-12T02:23:54;17.50;99.90
31783;DHT22;18351;47.560;9.708;2023-08-12T02:26:20;17.40;99.90
31783;DHT22;18351;47.560;9.708;2023-08-12T02:28:46;17.30;99.90
31783;DHT22;18351;47.560;9.708;2023-08-12T02:31:11;17.20;99.90
31783;DHT22;18351;47.560;9.708;2023-08-12T02:33:37;17.20;99.90
31783;DHT22;18351;47.560;9.708;2023-08-12T02:36:02;17.10;99.90
31783;DHT22;18351;47.560;9.708;2023-08-12T02:38:28;17.00;99.90
31783;DHT22;18351;47.560;9.708;2023-08-12T02:40:54;17.00;99.90
31783;DHT22;18351;47.560;9.708;2023-08-12T02:43:20;16.90;99.90
31783;DHT22;18351;47.560;9.708;2023-08-12T02:45:46;16.90;99.90
31783;DHT22;18351;47.560;9.708;2023-08-12T02:48:12;16.90;99.90
31783;DHT22;18351;47.560;9.708;2023-08-12T02:50:38;16.80;99.90
31783;DHT22;18351;47.560;9.708;2023-08-12T02:53:05;16.80;99.90
31783;DHT22;18351;47.560;9.708;2023-08-12T02:55:31;16.80;99.90
31783;DHT22;18351;47.560;9.708;2023-08-12T02:58:00;16.80;99.90
31783;DHT22;18351;47.560;9.708;2023-08-12T03:00:26;16.90;99.90
31783;DHT22;18351;47.560;9.708;2023-08-12T03:02:51;16.80;99.90
31783;DHT22;18351;47.560;9.708;2023-08-12T03:05:17;16.80;99.90
31783;DHT22;18351;47.560;9.708;2023-08-12T03:07:43;16.80;99.90
31783;DHT22;18351;47.560;9.708;2023-08-12T03:10:08;16.80;99.90
31783;DHT22;18351;47.560;9.708;2023-08-12T03:12:34;16.70;99.90
31783;DHT22;18351;47.560;9.708;2023-08-12T03:15:01;16.80;99.90
31783;DHT22;18351;47.560;9.708;2023-08-12T03:17:26;16.70;99.90
31783;DHT22;18351;47.560;9.708;2023-08-12T03:19:52;16.70;99.90
31783;DHT22;18351;47.560;9.708;2023-08-12T03:22:20;16.80;99.90
31783;DHT22;18351;47.560;9.708;2023-08-12T03:24:45;16.70;99.90
31783;DHT22;18351;47.560;9.708;2023-08-12T03:27:11;16.80;99.90
31783;DHT22;18351;47.560;9.708;2023-08-12T03:29:36;16.80;99.90
31783;DHT22;18351;47.560;9.708;2023-08-12T03:32:02;16.80;99.90
31783;DHT22;18351;47.560;9.708;2023-08-12T03:34:28;16.90;99.90
31783;DHT22;18351;47.560;9.708;2023-08-12T03:36:55;16.90;99.90
31783;DHT22;18351;47.560;9.708;2023-08-12T03:39:20;17.00;99.90
31783;DHT22;18351;47.560;9.708;2023-08-12T03:41:46;17.00;99.90
31783;DHT22;18351;47.560;9.708;2023-08-12T03:44:11;17.10;99.90
31783;DHT22;18351;47.560;9.708;2023-08-12T03:46:37;17.10;99.90
31783;DHT22;18351;47.560;9.708;2023-08-12T03:49:03;17.10;99.90
31783;DHT22;18351;47.560;9.708;2023-08-12T03:51:28;17.10;99.90
31783;DHT22;18351;47.560;9.708;2023-08-12T03:53:54;17.10;99.90
31783;DHT22;18351;47.560;9.708;2023-08-12T03:56:19;17.20;99.90
31783;DHT22;18351;47.560;9.708;2023-08-12T03:58:45;17.20;99.90
31783;DHT22;18351;47.560;9.708;2023-08-12T04:01:11;17.20;99.90
31783;DHT22;18351;47.560;9.708;2023-08-12T04:03:36;17.20;99.90
31783;DHT22;18351;47.560;9.708;2023-08-12T04:06:02;17.20;99.90
31783;DHT22;18351;47.560;9.708;2023-08-12T04:08:28;17.20;99.90
31783;DHT22;18351;47.560;9.708;2023-08-12T04:10:54;17.20;99.90
31783;DHT22;18351;47.560;9.708;2023-08-12T04:13:20;17.30;99.90
31783;DHT22;18351;47.560;9.708;2023-08-12T04:15:50;17.30;99.90
31783;DHT22;18351;47.560;9.708;2023-08-12T04:18:16;17.30;99.90
31783;DHT22;18351;47.560;9.708;2023-08-12T04:20:42;17.30;99.90
31783;DHT22;18351;47.560;9.708;2023-08-12T04:23:07;17.30;99.90
31783;DHT22;18351;47.560;9.708;2023-08-12T04:25:33;17.30;99.90
31783;DHT22;18351;47.560;9.708;2023-08-12T04:27:59;17.30;99.90
31783;DHT22;18351;47.560;9.708;2023-08-12T04:30:24;17.30;99.90
31783;DHT22;18351;47.560;9.708;2023-08-12T04:32:50;17.30;99.90
31783;DHT22;18351;47.560;9.708;2023-08-12T04:35:16;17.30;99.90
31783;DHT22;18351;47.560;9.708;2023-08-12T04:37:41;17.30;99.90
31783;DHT22;18351;47.560;9.708;2023-08-12T04:40:07;17.30;99.90
31783;DHT22;18351;47.560;9.708;2023-08-12T04:42:33;17.40;99.90
31783;DHT22;18351;47.560;9.708;2023-08-12T04:44:59;17.40;99.90
31783;DHT22;18351;47.560;9.708;2023-08-12T04:47:24;17.40;99.90
31783;DHT22;18351;47.560;9.708;2023-08-12T04:49:50;17.40;99.90
31783;DHT22;18351;47.560;9.708;2023-08-12T04:52:16;17.50;99.90
31783;DHT22;18351;47.560;9.708;2023-08-12T04:54:42;17.50;99.90
31783;DHT22;18351;47.560;9.708;2023-08-12T04:57:08;17.50;99.90
31783;DHT22;18351;47.560;9.708;2023-08-12T04:59:33;17.60;99.90
31783;DHT22;18351;47.560;9.708;2023-08-12T05:01:59;17.70;99.90
31783;DHT22;18351;47.560;9.708;2023-08-12T05:04:24;17.80;99.90
31783;DHT22;18351;47.560;9.708;2023-08-12T05:06:50;17.80;99.90
31783;DHT22;18351;47.560;9.708;2023-08-12T05:09:15;17.80;99.90
31783;DHT22;18351;47.560;9.708;2023-08-12T05:11:41;17.90;99.90
31783;DHT22;18351;47.560;9.708;2023-08-12T05:14:06;18.00;99.90
31783;DHT22;18351;47.560;9.708;2023-08-12T05:16:32;18.00;99.90
31783;DHT22;18351;47.560;9.708;2023-08-12T05:18:58;18.10;99.90
31783;DHT22;18351;47.560;9.708;2023-08-12T05:21:23;18.20;99.90
31783;DHT22;18351;47.560;9.708;2023-08-12T05:23:49;18.40;99.90
31783;DHT22;18351;47.560;9.708;2023-08-12T05:26:15;18.60;99.90
31783;DHT22;18351;47.560;9.708;2023-08-12T05:28:40;18.90;99.90
31783;DHT22;18351;47.560;9.708;2023-08-12T05:31:06;19.20;99.90
31783;DHT22;18351;47.560;9.708;2023-08-12T05:33:31;19.40;99.90
31783;DHT22;18351;47.560;9.708;2023-08-12T05:35:57;19.70;99.90
31783;DHT22;18351;47.560;9.708;2023-08-12T05:38:23;20.10;99.90
31783;DHT22;18351;47.560;9.708;2023-08-12T05:40:48;20.80;99.90
31783;DHT22;18351;47.560;9.708;2023-08-12T05:43:14;21.70;99.90
31783;DHT22;18351;47.560;9.708;2023-08-12T05:45:39;22.20;99.90
31783;DHT22;18351;47.560;9.708;2023-08-12T05:48:05;22.40;99.90
31783;DHT22;18351;47.560;9.708;2023-08-12T05:50:31;22.60;99.90
31783;DHT22;18351;47.560;9.708;2023-08-12T05:52:56;22.70;99.90
31783;DHT22;18351;47.560;9.708;2023-08-12T05:55:22;22.80;99.90
31783;DHT22;18351;47.560;9.708;2023-08-12T05:57:47;22.70;99.90
31783;DHT22;18351;47.560;9.708;2023-08-12T06:00:13;22.60;99.90
31783;DHT22;18351;47.560;9.708;2023-08-12T06:02:39;22.50;99.90
31783;DHT22;18351;47.560;9.708;2023-08-12T06:05:04;22.40;99.90
31783;DHT22;18351;47.560;9.708;2023-08-12T06:07:30;22.30;99.90
31783;DHT22;18351;47.560;9.708;2023-08-12T06:09:56;22.20;99.90
31783;DHT22;18351;47.560;9.708;2023-08-12T06:12:21;22.30;99.90
31783;DHT22;18351;47.560;9.708;2023-08-12T06:14:47;22.20;99.90
31783;DHT22;18351;47.560;9.708;2023-08-12T06:17:12;22.20;99.90
31783;DHT22;18351;47.560;9.708;2023-08-12T06:19:38;22.30;99.90
31783;DHT22;18351;47.560;9.708;2023-08-12T06:22:03;22.50;99.90
31783;DHT22;18351;47.560;9.708;2023-08-12T06:24:29;22.70;99.90
31783;DHT22;18351;47.560;9.708;2023-08-12T06:26:55;22.90;99.90
31783;DHT22;18351;47.560;9.708;2023-08-12T06:29:20;23.10;99.90
31783;DHT22;18351;47.560;9.708;2023-08-12T06:31:46;23.30;99.90
31783;DHT22;18351;47.560;9.708;2023-08-12T06:34:11;23.60;99.90
31783;DHT22;18351;47.560;9.708;2023-08-12T06:36:37;24.00;99.90
31783;DHT22;18351;47.560;9.708;2023-08-12T06:39:02;24.20;99.90
31783;DHT22;18351;47.560;9.708;2023-08-12T06:41:29;24.80;99.90
31783;DHT22;18351;47.560;9.708;2023-08-12T06:43:54;25.40;99.90
31783;DHT22;18351;47.560;9.708;2023-08-12T06:46:20;25.80;99.90
31783;DHT22;18351;47.560;9.708;2023-08-12T06:48:45;26.10;99.90
31783;DHT22;18351;47.560;9.708;2023-08-12T06:51:11;26.30;99.90
31783;DHT22;18351;47.560;9.708;2023-08-12T06:53:37;26.50;99.90
31783;DHT22;18351;47.560;9.708;2023-08-12T06:56:03;26.30;99.90
31783;DHT22;18351;47.560;9.708;2023-08-12T06:58:29;26.10;99.90
31783;DHT22;18351;47.560;9.708;2023-08-12T07:00:55;26.00;99.90
31783;DHT22;18351;47.560;9.708;2023-08-12T07:03:22;25.90;99.90
31783;DHT22;18351;47.560;9.708;2023-08-12T07:05:48;25.80;99.80
31783;DHT22;18351;47.560;9.708;2023-08-12T07:08:14;25.70;99.90
31783;DHT22;18351;47.560;9.708;2023-08-12T07:10:40;25.70;99.90
31783;DHT22;18351;47.560;9.708;2023-08-12T07:13:06;25.70;99.90
31783;DHT22;18351;47.560;9.708;2023-08-12T07:15:32;25.80;99.90
31783;DHT22;18351;47.560;9.708;2023-08-12T07:17:57;25.70;99.90
31783;DHT22;18351;47.560;9.708;2023-08-12T07:20:24;25.80;99.90
31783;DHT22;18351;47.560;9.708;2023-08-12T07:22:50;25.70;99.90
31783;DHT22;18351;47.560;9.708;2023-08-12T07:25:16;25.60;99.90
31783;DHT22;18351;47.560;9.708;2023-08-12T07:27:41;25.40;99.90
31783;DHT22;18351;47.560;9.708;2023-08-12T07:30:07;25.40;99.90
31783;DHT22;18351;47.560;9.708;2023-08-12T07:32:34;25.40;99.90
31783;DHT22;18351;47.560;9.708;2023-08-12T07:34:59;25.50;99.90
31783;DHT22;18351;47.560;9.708;2023-08-12T07:37:25;25.60;99.90
31783;DHT22;18351;47.560;9.708;2023-08-12T07:39:51;25.70;99.90
31783;DHT22;18351;47.560;9.708;2023-08-12T07:42:17;25.80;99.90
31783;DHT22;18351;47.560;9.708;2023-08-12T07:44:43;25.80;99.90
31783;DHT22;18351;47.560;9.708;2023-08-12T07:47:08;25.80;99.90
31783;DHT22;18351;47.560;9.708;2023-08-12T07:49:34;25.60;99.90
31783;DHT22;18351;47.560;9.708;2023-08-12T07:52:00;25.70;99.90
31783;DHT22;18351;47.560;9.708;2023-08-12T07:54:26;25.70;99.90
31783;DHT22;18351;47.560;9.708;2023-08-12T07:56:52;25.70;99.90
31783;DHT22;18351;47.560;9.708;2023-08-12T07:59:19;25.70;99.90
31783;DHT22;18351;47.560;9.708;2023-08-12T08:01:45;25.70;99.90
31783;DHT22;18351;47.560;9.708;2023-08-12T08:04:10;25.60;99.90
31783;DHT22;18351;47.560;9.708;2023-08-12T08:06:36;25.60;99.90
31783;DHT22;18351;47.560;9.708;2023-08-12T08:12:17;25.40;99.90
31783;DHT22;18351;47.560;9.708;2023-08-12T08:14:43;25.40;99.90
31783;DHT22;18351;47.560;9.708;2023-08-12T08:17:08;25.40;99.90
31783;DHT22;18351;47.560;9.708;2023-08-12T08:19:34;25.40;99.90
31783;DHT22;18351;47.560;9.708;2023-08-12T08:22:00;25.50;99.90
31783;DHT22;18351;47.560;9.708;2023-08-12T08:24:26;25.60;99.90
31783;DHT22;18351;47.560;9.708;2023-08-12T08:26:51;25.80;99.90
31783;DHT22;18351;47.560;9.708;2023-08-12T08:29:17;25.80;99.90
31783;DHT22;18351;47.560;9.708;2023-08-12T08:31:42;25.70;99.90
31783;DHT22;18351;47.560;9.708;2023-08-12T08:34:08;25.70;99.90
31783;DHT22;18351;47.560;9.708;2023-08-12T08:36:35;25.70;99.90
31783;DHT22;18351;47.560;9.708;2023-08-12T08:39:00;25.80;99.90
31783;DHT22;18351;47.560;9.708;2023-08-12T08:41:30;25.90;99.60
31783;DHT22;18351;47.560;9.708;2023-08-12T08:44:01;26.10;99.90
31783;DHT22;18351;47.560;9.708;2023-08-12T08:46:29;26.40;99.40
31783;DHT22;18351;47.560;9.708;2023-08-12T08:48:55;26.50;99.50
31783;DHT22;18351;47.560;9.708;2023-08-12T08:51:24;26.60;99.80
31783;DHT22;18351;47.560;9.708;2023-08-12T08:53:54;26.60;99.90
31783;DHT22;18351;47.560;9.708;2023-08-12T08:56:20;26.50;98.80
31783;DHT22;18351;47.560;9.708;2023-08-12T08:58:46;26.40;99.10
31783;DHT22;18351;47.560;9.708;2023-08-12T09:01:12;26.50;99.50
31783;DHT22;18351;47.560;9.708;2023-08-12T09:03:39;26.50;98.30
31783;DHT22;18351;47.560;9.708;2023-08-12T09:06:05;26.70;98.90
31783;DHT22;18351;47.560;9.708;2023-08-12T09:08:32;26.80;99.10
31783;DHT22;18351;47.560;9.708;2023-08-12T09:11:02;26.80;99.00
31783;DHT22;18351;47.560;9.708;2023-08-12T09:13:28;26.90;99.30
31783;DHT22;18351;47.560;9.708;2023-08-12T09:15:54;26.90;99.40
31783;DHT22;18351;47.560;9.708;2023-08-12T09:18:20;26.90;99.10
31783;DHT22;18351;47.560;9.708;2023-08-12T09:20:50;27.10;99.90
31783;DHT22;18351;47.560;9.708;2023-08-12T09:23:15;27.20;99.80
31783;DHT22;18351;47.560;9.708;2023-08-12T09:25:43;27.20;99.50
31783;DHT22;18351;47.560;9.708;2023-08-12T09:28:12;27.20;99.90
31783;DHT22;18351;47.560;9.708;2023-08-12T09:30:39;27.20;99.90
31783;DHT22;18351;47.560;9.708;2023-08-12T09:33:06;27.40;99.00
31783;DHT22;18351;47.560;9.708;2023-08-12T09:35:41;27.60;98.60
31783;DHT22;18351;47.560;9.708;2023-08-12T09:38:11;27.90;98.20
31783;DHT22;18351;47.560;9.708;2023-08-12T09:40:38;28.10;97.60
31783;DHT22;18351;47.560;9.708;2023-08-12T09:43:04;28.40;97.40
31783;DHT22;18351;47.560;9.708;2023-08-12T09:45:34;28.50;96.20
31783;DHT22;18351;47.560;9.708;2023-08-12T09:48:00;28.60;95.90
31783;DHT22;18351;47.560;9.708;2023-08-12T09:50:27;28.70;94.30
31783;DHT22;18351;47.560;9.708;2023-08-12T09:52:54;28.70;94.40
31783;DHT22;18351;47.560;9.708;2023-08-12T09:55:22;28.60;93.50
31783;DHT22;18351;47.560;9.708;2023-08-12T09:57:49;28.70;95.00
31783;DHT22;18351;47.560;9.708;2023-08-12T10:00:16;29.00;94.20
31783;DHT22;18351;47.560;9.708;2023-08-12T10:02:44;29.00;93.40
31783;DHT22;18351;47.560;9.708;2023-08-12T10:05:13;28.90;93.80
31783;DHT22;18351;47.560;9.708;2023-08-12T10:07:41;28.80;93.70
31783;DHT22;18351;47.560;9.708;2023-08-12T10:10:07;28.60;93.40
31783;DHT22;18351;47.560;9.708;2023-08-12T10:12:34;28.40;94.00
31783;DHT22;18351;47.560;9.708;2023-08-12T10:15:01;28.20;94.30
31783;DHT22;18351;47.560;9.708;2023-08-12T10:17:27;28.00;94.80
31783;DHT22;18351;47.560;9.708;2023-08-12T10:20:01;27.80;95.60
31783;DHT22;18351;47.560;9.708;2023-08-12T10:22:30;27.70;94.70
31783;DHT22;18351;47.560;9.708;2023-08-12T10:24:58;27.70;94.20
31783;DHT22;18351;47.560;9.708;2023-08-12T10:27:25;27.60;95.50
31783;DHT22;18351;47.560;9.708;2023-08-12T10:29:51;27.70;95.80
31783;DHT22;18351;47.560;9.708;2023-08-12T10:32:17;27.80;95.60
31783;DHT22;18351;47.560;9.708;2023-08-12T10:34:42;28.10;95.10
31783;DHT22;18351;47.560;9.708;2023-08-12T10:37:09;28.30;94.10
31783;DHT22;18351;47.560;9.708;2023-08-12T10:39:36;28.50;94.30
31783;DHT22;18351;47.560;9.708;2023-08-12T10:42:02;28.50;93.20
31783;DHT22;18351;47.560;9.708;2023-08-12T10:44:39;28.60;94.10
31783;DHT22;18351;47.560;9.708;2023-08-12T10:47:09;28.70;93.00
31783;DHT22;18351;47.560;9.708;2023-08-12T10:49:39;28.60;92.60
31783;DHT22;18351;47.560;9.708;2023-08-12T10:54:54;28.90;91.60
31783;DHT22;18351;47.560;9.708;2023-08-12T10:57:34;29.10;90.90
31783;DHT22;18351;47.560;9.708;2023-08-12T11:00:03;29.30;90.70
31783;DHT22;18351;47.560;9.708;2023-08-12T11:02:33;29.50;91.80
31783;DHT22;18351;47.560;9.708;2023-08-12T11:05:04;29.70;91.50
31783;DHT22;18351;47.560;9.708;2023-08-12T11:07:47;29.80;90.80
31783;DHT22;18351;47.560;9.708;2023-08-12T11:10:18;30.10;90.50
31783;DHT22;18351;47.560;9.708;2023-08-12T11:15:17;30.10;90.60
31783;DHT22;18351;47.560;9.708;2023-08-12T11:17:46;30.00;88.30
31783;DHT22;18351;47.560;9.708;2023-08-12T11:20:12;30.10;89.20
31783;DHT22;18351;47.560;9.708;2023-08-12T11:22:43;30.20;88.30
31783;DHT22;18351;47.560;9.708;2023-08-12T11:25:11;30.60;87.80
31783;DHT22;18351;47.560;9.708;2023-08-12T11:27:44;30.60;86.80
31783;DHT22;18351;47.560;9.708;2023-08-12T11:30:20;30.60;85.50
31783;DHT22;18351;47.560;9.708;2023-08-12T11:32:49;30.50;90.00
31783;DHT22;18351;47.560;9.708;2023-08-12T11:35:16;30.30;89.40
31783;DHT22;18351;47.560;9.708;2023-08-12T11:37:46;30.00;89.50
31783;DHT22;18351;47.560;9.708;2023-08-12T11:40:13;29.60;89.70
31783;DHT22;18351;47.560;9.708;2023-08-12T11:42:44;29.40;89.70
31783;DHT22;18351;47.560;9.708;2023-08-12T11:45:10;29.10;90.50
31783;DHT22;18351;47.560;9.708;2023-08-12T11:47:38;29.00;90.20
31783;DHT22;18351;47.560;9.708;2023-08-12T11:50:09;29.00;91.00
31783;DHT22;18351;47.560;9.708;2023-08-12T11:52:39;29.00;90.60
31783;DHT22;18351;47.560;9.708;2023-08-12T11:55:05;29.00;91.20
31783;DHT22;18351;47.560;9.708;2023-08-12T11:57:32;29.00;91.80
31783;DHT22;18351;47.560;9.708;2023-08-12T12:00:07;29.00;92.20
31783;DHT22;18351;47.560;9.708;2023-08-12T12:05:11;28.90;92.60
31783;DHT22;18351;47.560;9.708;2023-08-12T12:07:37;28.80;91.00
31783;DHT22;18351;47.560;9.708;2023-08-12T12:10:04;28.30;91.30
31783;DHT22;18351;47.560;9.708;2023-08-12T12:12:33;27.90;92.80
31783;DHT22;18351;47.560;9.708;2023-08-12T12:14:59;27.30;94.00
31783;DHT22;18351;47.560;9.708;2023-08-12T12:17:24;27.40;94.60
31783;DHT22;18351;47.560;9.708;2023-08-12T12:20:08;27.00;95.60
31783;DHT22;18351;47.560;9.708;2023-08-12T12:22:37;27.20;95.40
31783;DHT22;18351;47.560;9.708;2023-08-12T12:25:08;27.40;93.00
31783;DHT22;18351;47.560;9.708;2023-08-12T12:27:34;27.90;92.50
31783;DHT22;18351;47.560;9.708;2023-08-12T12:30:00;28.30;92.90
31783;DHT22;18351;47.560;9.708;2023-08-12T12:32:26;28.60;93.20
31783;DHT22;18351;47.560;9.708;2023-08-12T12:34:52;28.90;93.60
31783;DHT22;18351;47.560;9.708;2023-08-12T12:37:18;29.30;87.50
31783;DHT22;18351;47.560;9.708;2023-08-12T12:39:44;29.40;88.60
31783;DHT22;18351;47.560;9.708;2023-08-12T12:42:10;29.40;87.90
31783;DHT22;18351;47.560;9.708;2023-08-12T12:44:36;29.20;87.80
31783;DHT22;18351;47.560;9.708;2023-08-12T12:47:02;29.10;90.10
31783;DHT22;18351;47.560;9.708;2023-08-12T12:49:28;29.10;88.50
31783;DHT22;18351;47.560;9.708;2023-08-12T12:51:54;29.20;87.90
31783;DHT22;18351;47.560;9.708;2023-08-12T12:54:19;29.10;89.30
31783;DHT22;18351;47.560;9.708;2023-08-12T12:56:45;29.10;88.40
31783;DHT22;18351;47.560;9.708;2023-08-12T12:59:11;29.10;89.40
31783;DHT22;18351;47.560;9.708;2023-08-12T13:01:36;29.00;87.40
31783;DHT22;18351;47.560;9.708;2023-08-12T13:04:02;29.10;87.20
31783;DHT22;18351;47.560;9.708;2023-08-12T13:06:28;29.00;85.50
31783;DHT22;18351;47.560;9.708;2023-08-12T13:08:53;29.00;85.90
31783;DHT22;18351;47.560;9.708;2023-08-12T13:11:19;29.00;87.10
31783;DHT22;18351;47.560;9.708;2023-08-12T13:13:44;29.10;88.30
31783;DHT22;18351;47.560;9.708;2023-08-12T13:16:10;29.10;85.90
31783;DHT22;18351;47.560;9.708;2023-08-12T13:18:36;29.20;87.20
31783;DHT22;18351;47.560;9.708;2023-08-12T13:21:01;29.40;86.30
31783;DHT22;18351;47.560;9.708;2023-08-12T13:23:27;29.40;87.90
31783;DHT22;18351;47.560;9.708;2023-08-12T13:25:52;29.30;84.20
31783;DHT22;18351;47.560;9.708;2023-08-12T13:28:18;29.30;86.50
31783;DHT22;18351;47.560;9.708;2023-08-12T13:30:45;29.30;85.90
31783;DHT22;18351;47.560;9.708;2023-08-12T13:33:11;29.50;85.50
31783;DHT22;18351;47.560;9.708;2023-08-12T13:35:36;29.70;86.80
31783;DHT22;18351;47.560;9.708;2023-08-12T13:38:02;29.60;83.90
31783;DHT22;18351;47.560;9.708;2023-08-12T13:40:27;29.70;86.00
31783;DHT22;18351;47.560;9.708;2023-08-12T13:42:53;29.70;87.00
31783;DHT22;18351;47.560;9.708;2023-08-12T13:45:19;29.40;84.70
31783;DHT22;18351;47.560;9.708;2023-08-12T13:47:45;29.30;84.60
31783;DHT22;18351;47.560;9.708;2023-08-12T13:50:10;29.40;86.10
31783;DHT22;18351;47.560;9.708;2023-08-12T13:52:36;29.50;87.40
31783;DHT22;18351;47.560;9.708;2023-08-12T13:55:02;29.50;84.10
31783;DHT22;18351;47.560;9.708;2023-08-12T13:57:28;29.50;85.20
31783;DHT22;18351;47.560;9.708;2023-08-12T13:59:54;29.20;87.60
31783;DHT22;18351;47.560;9.708;2023-08-12T14:02:20;29.00;86.50
31783;DHT22;18351;47.560;9.708;2023-08-12T14:04:45;28.90;87.70
31783;DHT22;18351;47.560;9.708;2023-08-12T14:07:11;28.90;88.40
31783;DHT22;18351;47.560;9.708;2023-08-12T14:09:37;28.60;88.70
31783;DHT22;18351;47.560;9.708;2023-08-12T14:12:02;28.30;90.30
31783;DHT22;18351;47.560;9.708;2023-08-12T14:14:29;28.30;90.50
31783;DHT22;18351;47.560;9.708;2023-08-12T14:16:55;28.30;89.80
31783;DHT22;18351;47.560;9.708;2023-08-12T14:19:20;28.40;90.40
31783;DHT22;18351;47.560;9.708;2023-08-12T14:21:46;28.70;91.60
31783;DHT22;18351;47.560;9.708;2023-08-12T14:24:12;29.00;90.70
31783;DHT22;18351;47.560;9.708;2023-08-12T14:26:39;29.20;87.50
31783;DHT22;18351;47.560;9.708;2023-08-12T14:29:05;29.40;87.80
31783;DHT22;18351;47.560;9.708;2023-08-12T14:31:30;29.70;86.50
31783;DHT22;18351;47.560;9.708;2023-08-12T14:33:56;29.40;83.50
31783;DHT22;18351;47.560;9.708;2023-08-12T14:36:22;29.40;87.50
31783;DHT22;18351;47.560;9.708;2023-08-12T14:38:49;29.60;86.70
31783;DHT22;18351;47.560;9.708;2023-08-12T14:41:15;29.80;85.50
31783;DHT22;18351;47.560;9.708;2023-08-12T14:43:40;29.90;84.80
31783;DHT22;18351;47.560;9.708;2023-08-12T14:46:06;30.10;83.70
31783;DHT22;18351;47.560;9.708;2023-08-12T14:48:31;29.80;80.80
31783;DHT22;18351;47.560;9.708;2023-08-12T14:50:57;29.70;82.00
31783;DHT22;18351;47.560;9.708;2023-08-12T14:53:24;29.80;82.60
31783;DHT22;18351;47.560;9.708;2023-08-12T14:55:50;29.90;83.80
31783;DHT22;18351;47.560;9.708;2023-08-12T14:58:16;29.80;84.00
31783;DHT22;18351;47.560;9.708;2023-08-12T15:00:41;29.80;83.50
31783;DHT22;18351;47.560;9.708;2023-08-12T15:03:07;29.80;84.70
31783;DHT22;18351;47.560;9.708;2023-08-12T15:05:32;29.80;84.40
31783;DHT22;18351;47.560;9.708;2023-08-12T15:07:58;29.50;81.50
31783;DHT22;18351;47.560;9.708;2023-08-12T15:10:23;29.50;83.50
31783;DHT22;18351;47.560;9.708;2023-08-12T15:12:49;29.20;82.20
31783;DHT22;18351;47.560;9.708;2023-08-12T15:15:15;29.30;83.50
31783;DHT22;18351;47.560;9.708;2023-08-12T15:17:40;29.30;82.20
31783;DHT22;18351;47.560;9.708;2023-08-12T15:20:07;29.40;82.40
31783;DHT22;18351;47.560;9.708;2023-08-12T15:22:35;29.30;79.50
31783;DHT22;18351;47.560;9.708;2023-08-12T15:25:01;29.30;80.80
31783;DHT22;18351;47.560;9.708;2023-08-12T15:27:26;29.40;79.90
31783;DHT22;18351;47.560;9.708;2023-08-12T15:29:52;29.50;80.10
31783;DHT22;18351;47.560;9.708;2023-08-12T15:32:18;29.70;80.60
31783;DHT22;18351;47.560;9.708;2023-08-12T15:34:44;29.80;79.20
31783;DHT22;18351;47.560;9.708;2023-08-12T15:37:09;29.60;77.70
31783;DHT22;18351;47.560;9.708;2023-08-12T15:39:36;29.60;77.10